Time;durP1;ratioP1;P1;durP2;ratioP2;P2;SDS_P1;SDS_P2;PMS_P1;PMS_P2;Temp;Humidity;BMP_temperature;BMP_pressure;BME280_temperature;BME280_humidity;BME280_pressure;Samples;Min_cycle;Max_cycle;Signal;HPM_P1;HPM_P2
2022/08/09 00:01:10;;;;;;;4.65;3.58;;;;;;;14.46;62.96;101178.23;2083707;85;33437;-61
2022/08/09 00:04:11;;;;;;;5.10;3.52;;;;;;;14.43;62.84;101168.45;2047939;86;30151;-62
2022/08/09 00:07:13;;;;;;;7.72;3.55;;;;;;;14.42;63.06;101172.59;2083618;84;27704;-62
2022/08/09 00:10:14;;;;;;;13.50;3.37;;;;;;;14.39;63.02;101183.06;2047573;87;29971;-62
2022/08/09 00:13:15;;;;;;;4.97;3.30;;;;;;;14.37;63.05;101174.64;2047607;86;31089;-62
2022/08/09 00:16:17;;;;;;;5.97;3.37;;;;;;;14.34;63.27;101177.03;2068854;85;33320;-62
2022/08/09 00:19:19;;;;;;;4.97;3.17;;;;;;;14.31;63.38;101174.98;2078494;85;29198;-62
2022/08/09 00:22:20;;;;;;;5.67;3.62;;;;;;;14.28;63.26;101175.53;2068740;85;27672;-62
2022/08/09 00:25:21;;;;;;;9.50;3.27;;;;;;;14.27;63.29;101174.23;2078487;85;29852;-63
2022/08/09 00:28:23;;;;;;;5.78;3.20;;;;;;;14.28;63.34;101174.64;2068941;85;31031;-62
2022/08/09 00:31:25;;;;;;;6.87;3.95;;;;;;;14.27;63.45;101175.13;2078671;85;33403;-62
2022/08/09 00:34:26;;;;;;;4.67;3.45;;;;;;;14.25;63.44;101172.98;2069265;85;29326;-62
2022/08/09 00:37:28;;;;;;;4.67;3.80;;;;;;;14.26;63.55;101177.42;2083832;85;27706;-62
2022/08/09 00:40:30;;;;;;;4.08;3.52;;;;;;;14.25;63.56;101175.68;2099528;84;29282;-62
2022/08/09 00:43:33;;;;;;;4.28;3.15;;;;;;;14.25;63.56;101170.75;2083007;85;31045;-62
2022/08/09 00:46:35;;;;;;;7.37;3.60;;;;;;;14.24;63.57;101180.67;2116843;83;33328;-62
2022/08/09 00:49:36;;;;;;;6.78;3.00;;;;;;;14.24;63.62;101178.44;2113542;84;29525;-62
2022/08/09 00:52:38;;;;;;;5.12;3.10;;;;;;;14.23;63.73;101181.62;2103802;84;27612;-62
2022/08/09 00:55:40;;;;;;;12.80;3.87;;;;;;;14.24;63.59;101177.08;2093391;84;28728;-62
2022/08/09 00:58:42;;;;;;;4.85;3.27;;;;;;;14.23;63.66;101177.58;2103291;84;32372;-62
2022/08/09 01:01:46;;;;;;;7.65;3.90;;;;;;;14.21;63.78;101179.47;2113194;84;33181;-62
2022/08/09 01:04:59;;;;;;;7.47;3.52;;;;;;;14.19;63.68;101181.37;2098090;84;30416;-62
2022/08/09 01:08:12;;;;;;;5.28;3.70;;;;;;;14.18;63.78;101184.16;2078298;85;27710;-62
2022/08/09 01:11:34;;;;;;;5.33;3.83;;;;;;;14.17;63.87;101179.71;2068455;85;30796;-62
2022/08/09 01:14:44;;;;;;;7.50;3.40;;;;;;;14.13;63.77;101182.56;2077906;85;31760;-62
2022/08/09 01:17:55;;;;;;;4.35;3.83;;;;;;;14.11;63.91;101188.98;2068779;86;32978;-63
2022/08/09 01:21:20;;;;;;;4.95;3.95;;;;;;;14.09;63.96;101182.80;2078450;85;29760;-62
2022/08/09 01:25:03;;;;;;;6.30;2.30;;;;;;;14.04;64.18;101182.14;2069117;86;28098;-62
2022/08/09 01:28:06;;;;;;;5.80;3.00;;;;;;;14.01;64.27;101184.98;2049541;86;29061;-61
2022/08/09 01:31:14;;;;;;;5.47;3.15;;;;;;;13.94;64.20;101183.97;2047905;86;31041;-62
2022/08/09 01:34:19;;;;;;;6.75;3.50;;;;;;;13.90;64.38;101183.70;2047366;86;32532;-62
2022/08/09 01:37:21;;;;;;;5.25;3.52;;;;;;;13.86;64.62;101187.49;2036118;86;29345;-62
2022/08/09 01:40:23;;;;;;;5.33;3.65;;;;;;;13.81;64.59;101186.37;2047873;86;27746;-62
2022/08/09 01:43:25;;;;;;;7.17;3.80;;;;;;;13.79;64.75;101190.11;2044579;86;28658;-62
2022/08/09 01:46:39;;;;;;;5.55;3.70;;;;;;;13.75;64.78;101189.36;2044154;87;31398;-62
2022/08/09 01:49:41;;;;;;;4.93;3.30;;;;;;;13.74;65.03;101198.88;2043711;86;34139;-62
2022/08/09 01:52:43;;;;;;;5.37;3.65;;;;;;;13.72;65.06;101192.69;2043098;86;29372;-62
2022/08/09 01:55:45;;;;;;;6.45;3.22;;;;;;;13.70;65.09;101194.13;2052389;85;27605;-62
2022/08/09 01:58:46;;;;;;;5.70;3.67;;;;;;;13.70;65.38;101194.58;2037137;85;28129;-62
2022/08/09 02:01:53;;;;;;;5.60;3.42;;;;;;;13.70;65.23;101199.50;2093205;84;28173;-62
2022/08/09 02:04:56;;;;;;;7.30;4.33;;;;;;;13.72;65.74;101199.42;2083197;85;33460;-63
2022/08/09 02:08:05;;;;;;;5.03;4.00;;;;;;;13.75;65.74;101200.13;2099180;84;29366;-62
2022/08/09 02:11:08;;;;;;;6.00;3.85;;;;;;;13.81;65.64;101201.20;2083665;84;28347;-62
2022/08/09 02:14:11;;;;;;;5.47;3.72;;;;;;;13.87;65.87;101197.81;2099556;84;28663;-62
2022/08/09 02:17:13;;;;;;;5.87;3.70;;;;;;;13.92;65.80;101192.59;2079370;84;31016;-62
2022/08/09 02:20:15;;;;;;;4.83;3.58;;;;;;;13.99;66.18;101191.81;2068374;85;32779;-62
2022/08/09 02:23:40;;;;;;;4.33;3.25;;;;;;;14.06;66.26;101194.61;2078523;85;30507;-63
2022/08/09 02:26:42;;;;;;;6.22;3.55;;;;;;;14.12;66.39;101184.85;2069184;86;27586;-62
2022/08/09 02:29:48;;;;;;;5.15;3.95;;;;;;;14.18;66.19;101183.66;2078539;85;28704;-62
2022/08/09 02:32:50;;;;;;;7.42;4.15;;;;;;;14.24;66.30;101179.32;2068423;85;31154;-62
2022/08/09 02:35:55;;;;;;;4.55;3.35;;;;;;;14.29;66.37;101179.08;2078499;85;34076;-61
2022/08/09 02:39:02;;;;;;;4.80;3.30;;;;;;;14.34;66.46;101177.48;2069068;86;30008;-65
2022/08/09 02:42:08;;;;;;;4.10;3.27;;;;;;;14.39;66.64;101181.72;2078993;85;27627;-62
2022/08/09 02:45:16;;;;;;;8.73;3.52;;;;;;;14.44;66.57;101176.08;2069136;85;28647;-65
2022/08/09 02:48:19;;;;;;;5.75;3.62;;;;;;;14.48;66.69;101179.48;2079711;85;31707;-65
2022/08/09 02:51:22;;;;;;;5.87;3.47;;;;;;;14.53;66.63;101186.87;2099702;84;33970;-62
2022/08/09 02:54:25;;;;;;;4.10;3.40;;;;;;;14.57;66.85;101184.38;2071965;85;29261;-62
2022/08/09 02:57:28;;;;;;;4.37;3.80;;;;;;;14.61;66.92;101183.77;2072225;84;27737;-62
2022/08/09 03:00:30;;;;;;;5.53;3.42;;;;;;;14.64;66.85;101184.47;2068347;85;29944;-63
2022/08/09 03:03:32;;;;;;;4.45;3.52;;;;;;;14.67;66.93;101186.13;2064478;86;31425;-65
2022/08/09 03:06:34;;;;;;;5.87;4.05;;;;;;;14.69;66.87;101183.80;2068581;86;32900;-61
2022/08/09 03:09:36;;;;;;;6.47;3.83;;;;;;;14.71;66.76;101185.05;2064137;86;30445;-65
2022/08/09 03:12:39;;;;;;;6.53;4.12;;;;;;;14.73;66.79;101179.95;2068501;85;27738;-65
2022/08/09 03:15:41;;;;;;;5.20;4.03;;;;;;;14.74;66.82;101180.84;2062642;86;28674;-64
2022/08/09 03:18:47;;;;;;;6.70;3.90;;;;;;;14.73;66.77;101177.75;2062340;86;30463;-65
2022/08/09 03:21:50;;;;;;;6.55;3.60;;;;;;;14.73;66.86;101180.45;2054084;86;32746;-65
2022/08/09 03:24:51;;;;;;;7.40;4.58;;;;;;;14.71;66.78;101182.35;2063468;86;29370;-62
2022/08/09 03:27:55;;;;;;;6.45;3.75;;;;;;;14.69;66.82;101180.20;2054090;86;27715;-65
2022/08/09 03:30:56;;;;;;;6.97;4.00;;;;;;;14.65;66.78;101179.47;2062889;86;28467;-65
2022/08/09 03:34:01;;;;;;;6.15;3.95;;;;;;;14.64;66.80;101187.16;2053736;86;31936;-64
2022/08/09 03:37:02;;;;;;;12.28;3.95;;;;;;;14.65;66.80;101183.98;2063297;86;34246;-65
2022/08/09 03:40:06;;;;;;;7.55;4.20;;;;;;;14.63;66.78;101189.95;2053901;86;29354;-64
2022/08/09 03:43:08;;;;;;;6.33;4.22;;;;;;;14.64;67.00;101187.16;2062726;86;27789;-61
2022/08/09 03:46:09;;;;;;;6.03;3.92;;;;;;;14.68;67.10;101192.84;2057743;86;28679;-62
2022/08/09 03:49:12;;;;;;;4.37;3.87;;;;;;;14.71;67.31;101189.09;2068437;85;31020;-61
2022/08/09 03:52:14;;;;;;;7.55;4.70;;;;;;;14.76;67.31;101195.59;2064054;86;33343;-61
2022/08/09 03:55:16;;;;;;;5.72;4.95;;;;;;;14.79;67.39;101189.58;2057006;86;29336;-61
2022/08/09 03:58:18;;;;;;;6.50;4.55;;;;;;;14.84;67.42;101192.87;2079560;84;27612;-61
2022/08/09 04:01:20;;;;;;;7.97;4.75;;;;;;;14.88;67.34;101195.81;2113220;84;29901;-62
2022/08/09 04:04:22;;;;;;;7.03;4.30;;;;;;;14.94;67.33;101203.20;2113574;84;32185;-62
2022/08/09 04:07:23;;;;;;;7.25;3.67;;;;;;;14.98;67.23;101208.34;2113320;84;33419;-61
2022/08/09 04:10:25;;;;;;;10.35;5.12;;;;;;;15.04;67.32;101204.44;2093454;84;30439;-62
2022/08/09 04:13:27;;;;;;;7.95;4.80;;;;;;;15.09;67.20;101203.72;2113891;84;27659;-61
2022/08/09 04:16:28;;;;;;;7.42;4.72;;;;;;;15.13;66.82;101211.16;2108787;84;28673;-62
2022/08/09 04:19:30;;;;;;;7.42;4.85;;;;;;;15.19;66.89;101209.00;2105980;84;31830;-62
2022/08/09 04:22:32;;;;;;;9.10;5.22;;;;;;;15.25;66.81;101214.53;2105641;84;33530;-62
2022/08/09 04:25:34;;;;;;;8.75;4.78;;;;;;;15.32;66.65;101213.25;2105584;84;29480;-61
2022/08/09 04:28:36;;;;;;;7.67;4.33;;;;;;;15.40;66.63;101212.83;2105363;84;27629;-61
2022/08/09 04:31:38;;;;;;;8.83;4.67;;;;;;;15.50;66.71;101204.59;2104597;84;29905;-61
2022/08/09 04:34:39;;;;;;;6.28;4.30;;;;;;;15.62;66.65;101190.89;2128135;83;31442;-60
2022/08/09 04:37:40;;;;;;;8.95;4.45;;;;;;;15.62;66.65;101190.89;2141486;82;33320;-60
2022/08/09 04:40:47;;;;;;;6.35;4.58;;;;;;;15.88;66.49;101214.25;2141637;83;29160;-60
2022/08/09 04:43:49;;;;;;;7.25;4.05;;;;;;;16.13;66.23;101219.56;2141379;83;27546;-60
2022/08/09 04:46:51;;;;;;;8.05;4.72;;;;;;;16.13;66.23;101219.56;2111195;83;29141;-61
2022/08/09 04:49:54;;;;;;;4.12;3.72;;;;;;;16.22;66.17;101191.12;2105269;84;32379;-61
2022/08/09 04:52:55;;;;;;;8.40;4.70;;;;;;;16.22;66.17;101191.12;2105663;84;33338;-61
2022/08/09 04:55:56;;;;;;;7.45;5.05;;;;;;;16.46;66.16;101219.89;2104594;84;29680;-61
2022/08/09 04:58:58;;;;;;;9.13;4.75;;;;;;;16.58;65.96;101225.52;2104626;84;27690;-60
2022/08/09 05:01:59;;;;;;;8.33;4.35;;;;;;;16.69;65.88;101231.17;2104840;84;29132;-61
2022/08/09 05:05:00;;;;;;;7.35;4.20;;;;;;;16.76;65.56;101236.58;2104684;84;31792;-61
2022/08/09 05:08:02;;;;;;;8.78;4.58;;;;;;;16.72;65.39;101214.72;2104621;84;34218;-61
2022/08/09 05:11:05;;;;;;;7.78;4.50;;;;;;;16.99;65.17;101240.61;2104953;84;29692;-61
2022/08/09 05:14:06;;;;;;;8.28;4.10;;;;;;;16.99;65.17;101240.61;2105121;84;27625;-61
2022/08/09 05:17:08;;;;;;;11.68;4.35;;;;;;;17.11;65.17;101240.84;2109634;84;28392;-61
2022/08/09 05:20:10;;;;;;;10.80;5.15;;;;;;;17.20;65.05;101245.67;2110605;84;31686;-61
2022/08/09 05:23:11;;;;;;;7.67;4.40;;;;;;;17.29;64.98;101242.87;2107821;84;32979;-61
2022/08/09 05:26:12;;;;;;;9.85;4.03;;;;;;;17.38;64.61;101250.40;2104934;84;29482;-61
2022/08/09 05:29:18;;;;;;;8.03;4.25;;;;;;;17.46;64.52;101248.56;2104964;84;27534;-61
2022/08/09 05:32:18;;;;;;;;;;;;;;;17.55;64.29;101249.34;2106853;84;29389;-61
2022/08/09 05:35:21;;;;;;;10.10;4.97;;;;;;;17.67;64.17;101253.58;2104924;84;32244;-61
2022/08/09 05:38:22;;;;;;;5.87;4.55;;;;;;;17.74;63.99;101257.65;2104886;84;34189;-61
2022/08/09 05:41:23;;;;;;;9.80;4.25;;;;;;;17.86;63.83;101250.57;2104954;84;29234;-61
2022/08/09 05:44:26;;;;;;;10.72;4.53;;;;;;;17.99;63.78;101247.94;2105140;84;27669;-61
2022/08/09 05:47:27;;;;;;;6.83;4.03;;;;;;;18.12;63.76;101250.21;2104952;84;28550;-61
2022/08/09 05:50:29;;;;;;;9.10;4.80;;;;;;;18.24;63.53;101249.89;2104904;84;32278;-61
2022/08/09 05:53:31;;;;;;;6.97;4.40;;;;;;;18.37;63.43;101253.51;2107249;84;33610;-61
2022/08/09 05:56:32;;;;;;;5.45;3.62;;;;;;;18.48;63.11;101249.22;2110235;84;30396;-61
2022/08/09 05:59:33;;;;;;;7.83;4.40;;;;;;;18.61;63.01;101250.62;2106702;84;27701;-61
2022/08/09 06:02:35;;;;;;;5.92;3.85;;;;;;;18.72;62.83;101252.56;2103278;84;29111;-61
2022/08/09 06:05:36;;;;;;;6.25;3.47;;;;;;;18.83;62.86;101251.36;2103321;84;30751;-61
2022/08/09 06:08:37;;;;;;;6.50;3.37;;;;;;;18.91;62.54;101263.05;2102300;84;33640;-61
2022/08/09 06:11:38;;;;;;;6.67;3.72;;;;;;;19.03;62.39;101260.00;2102867;84;29065;-62
2022/08/09 06:14:39;;;;;;;7.67;3.70;;;;;;;19.11;62.30;101257.59;2103391;84;27599;-61
2022/08/09 06:17:41;;;;;;;10.08;3.15;;;;;;;19.19;62.08;101260.66;2103661;84;29037;-61
2022/08/09 06:20:42;;;;;;;6.75;4.42;;;;;;;19.27;62.08;101251.96;2103417;84;31375;-62
2022/08/09 06:23:43;;;;;;;9.10;3.83;;;;;;;19.39;62.09;101252.91;2101773;84;32783;-61
2022/08/09 06:26:44;;;;;;;7.92;3.67;;;;;;;19.52;62.03;101258.33;2102974;84;29403;-63
2022/08/09 06:29:46;;;;;;;5.75;3.33;;;;;;;19.61;61.80;101259.02;2079614;84;27727;-63
2022/08/09 06:32:47;;;;;;;5.85;3.45;;;;;;;19.70;61.65;101265.16;2103501;84;28404;-62
2022/08/09 06:35:49;;;;;;;8.30;3.47;;;;;;;19.81;61.61;101262.12;2103334;84;31910;-62
2022/08/09 06:38:50;;;;;;;6.97;3.65;;;;;;;19.87;61.51;101261.72;2103052;84;34146;-62
2022/08/09 06:41:51;;;;;;;5.53;3.12;;;;;;;19.98;61.37;101258.21;2103355;84;29712;-62
2022/08/09 06:44:52;;;;;;;8.55;4.15;;;;;;;20.07;60.98;101259.38;2103291;84;27622;-62
2022/08/09 06:47:54;;;;;;;3.85;3.25;;;;;;;20.14;60.94;101262.89;2103719;84;29449;-62
2022/08/09 06:50:55;;;;;;;6.97;4.25;;;;;;;20.22;60.84;101262.78;2103450;84;31662;-61
2022/08/09 06:53:56;;;;;;;5.92;3.27;;;;;;;20.33;60.66;101262.86;2101636;84;32907;-62
2022/08/09 06:56:58;;;;;;;3.80;3.40;;;;;;;20.42;60.53;101270.83;2100743;84;29391;-61
2022/08/09 06:59:59;;;;;;;7.53;3.72;;;;;;;20.51;60.50;101268.75;2102961;84;27666;-61
2022/08/09 07:03:01;;;;;;;5.35;2.98;;;;;;;20.62;60.50;101274.73;2105125;84;29944;-62
2022/08/09 07:06:03;;;;;;;6.45;3.22;;;;;;;20.74;60.21;101274.29;2105049;84;31033;-62
2022/08/09 07:09:04;;;;;;;4.62;3.17;;;;;;;20.83;59.90;101276.83;2105387;84;33527;-62
2022/08/09 07:12:06;;;;;;;4.47;2.52;;;;;;;20.86;59.56;101281.53;2105080;84;29677;-61
2022/08/09 07:15:09;;;;;;;4.87;3.17;;;;;;;20.95;59.46;101281.31;2105392;84;27586;-61
2022/08/09 07:18:10;;;;;;;5.17;3.22;;;;;;;21.00;59.31;101283.19;2104313;84;29402;-61
2022/08/09 07:21:11;;;;;;;3.85;2.95;;;;;;;21.13;59.48;101283.58;2105372;83;31031;-60
2022/08/09 07:24:13;;;;;;;5.00;2.87;;;;;;;21.20;58.90;101287.55;2109423;84;32972;-61
2022/08/09 07:27:15;;;;;;;5.50;2.92;;;;;;;21.32;58.70;101292.05;2108826;84;31471;-61
2022/08/09 07:30:17;;;;;;;6.97;3.10;;;;;;;21.42;58.43;101299.47;2110360;84;27685;-61
2022/08/09 07:33:19;;;;;;;5.97;3.27;;;;;;;21.51;58.05;101298.75;2110104;84;28060;-63
2022/08/09 07:36:21;;;;;;;4.42;2.50;;;;;;;21.62;57.91;101297.89;2109847;84;30986;-64
2022/08/09 07:39:23;;;;;;;3.47;2.30;;;;;;;21.74;57.68;101301.02;2110135;84;33320;-64
2022/08/09 07:42:28;;;;;;;4.70;1.90;;;;;;;21.88;57.36;101301.23;2109991;84;29439;-66
2022/08/09 07:45:31;;;;;;;8.75;2.90;;;;;;;22.03;57.36;101303.21;2110272;84;27931;-65
2022/08/09 07:48:33;;;;;;;8.18;2.92;;;;;;;22.16;56.61;101309.89;2110080;84;29259;-64
2022/08/09 07:51:36;;;;;;;5.67;2.75;;;;;;;22.24;56.61;101310.11;2110037;84;31728;-65
2022/08/09 07:54:39;;;;;;;8.40;2.58;;;;;;;22.32;56.07;101313.56;2104770;84;34337;-62
2022/08/09 07:57:42;;;;;;;4.15;2.40;;;;;;;22.39;56.13;101312.55;2104627;84;30709;-62
2022/08/09 08:00:45;;;;;;;4.40;2.83;;;;;;;22.48;55.92;101313.67;2104492;84;36165;-61
2022/08/09 08:03:47;;;;;;;3.65;2.37;;;;;;;22.53;55.80;101312.80;2104733;84;29402;-62
2022/08/09 08:06:48;;;;;;;5.92;2.25;;;;;;;22.58;54.60;101316.02;2105133;84;30778;-61
2022/08/09 08:09:51;;;;;;;5.37;2.58;;;;;;;22.64;54.53;101316.84;2084853;84;33329;-61
2022/08/09 08:12:53;;;;;;;3.40;2.50;;;;;;;22.73;54.19;101313.83;2082206;85;30013;-61
2022/08/09 08:15:55;;;;;;;7.50;2.52;;;;;;;22.80;54.12;101310.07;2105441;84;27534;-61
2022/08/09 08:18:57;;;;;;;6.00;2.42;;;;;;;22.88;53.97;101307.56;2082158;85;29921;-61
2022/08/09 08:21:59;;;;;;;3.58;1.95;;;;;;;22.99;54.03;101308.00;2105305;84;32372;-62
2022/08/09 08:25:02;;;;;;;2.90;1.92;;;;;;;23.14;54.04;101309.41;2085971;84;34364;-64
2022/08/09 08:28:04;;;;;;;3.00;2.20;;;;;;;23.29;53.44;101311.83;2090552;84;30556;-64
2022/08/09 08:31:06;;;;;;;4.33;2.35;;;;;;;23.49;53.50;101306.84;2090948;84;27623;-65
2022/08/09 08:34:09;;;;;;;3.70;2.33;;;;;;;23.71;52.98;101305.41;2090541;85;28622;-63
2022/08/09 08:37:11;;;;;;;4.28;2.52;;;;;;;23.88;52.32;101307.98;2090849;83;31026;-65
2022/08/09 08:40:14;;;;;;;6.92;2.47;;;;;;;24.04;52.32;101309.72;2090934;84;33815;-65
2022/08/09 08:43:16;;;;;;;6.37;2.70;;;;;;;24.28;52.09;101319.45;2090749;85;30085;-65
2022/08/09 08:46:20;;;;;;;2.25;2.00;;;;;;;24.47;51.87;101314.49;2091067;85;27722;-68
2022/08/09 08:49:22;;;;;;;5.40;2.27;;;;;;;24.72;51.24;101318.58;2111352;83;28129;-66
2022/08/09 08:52:27;;;;;;;2.52;2.33;;;;;;;24.95;50.72;101319.66;2095816;84;31029;-65
2022/08/09 08:55:29;;;;;;;5.60;2.02;;;;;;;25.17;49.95;101320.33;2137412;83;33025;-66
2022/08/09 08:58:32;;;;;;;6.40;2.35;;;;;;;25.33;49.84;101323.85;2117257;84;29345;-65
2022/08/09 09:01:36;;;;;;;6.92;2.52;;;;;;;25.44;49.61;101319.59;2118005;82;27730;-67
2022/08/09 09:04:38;;;;;;;3.35;1.90;;;;;;;25.62;49.51;101325.67;2103670;84;28686;-68
2022/08/09 09:07:43;;;;;;;2.25;2.05;;;;;;;25.78;48.92;101320.92;2113525;84;31201;-64
2022/08/09 09:10:44;;;;;;;4.92;2.35;;;;;;;25.91;48.30;101317.31;2103712;84;32976;-66
2022/08/09 09:13:48;;;;;;;3.25;2.52;;;;;;;26.06;47.93;101316.80;2093055;84;29393;-73
2022/08/09 09:16:50;;;;;;;3.70;2.30;;;;;;;26.11;47.32;101317.70;2103763;84;27606;-69
2022/08/09 09:19:52;;;;;;;8.38;2.30;;;;;;;26.22;47.38;101317.02;2113650;84;28631;-70
2022/08/09 09:22:57;;;;;;;4.20;2.17;;;;;;;26.37;46.86;101318.75;2084387;84;31268;-70
2022/08/09 09:25:58;;;;;;;4.75;2.30;;;;;;;26.53;46.39;101314.44;2078404;84;33118;-70
2022/08/09 09:29:03;;;;;;;8.43;2.40;;;;;;;26.47;44.38;101316.42;2069043;85;30098;-69
2022/08/09 11:00:33;;;;;;;7.72;2.30;;;;;;;26.00;37.50;101274.34;2182207;78;27778;-67
2022/08/09 11:03:34;;;;;;;2.35;1.70;;;;;;;25.93;38.06;101269.98;2183247;80;29673;-67
2022/08/09 11:06:40;;;;;;;2.20;2.00;;;;;;;25.92;38.08;101280.61;2098424;83;31937;-67
2022/08/09 11:09:47;;;;;;;4.00;1.95;;;;;;;25.85;38.37;101267.13;2139968;80;33132;-64
2022/08/09 11:13:18;;;;;;;4.50;2.20;;;;;;;25.85;38.77;101260.78;2152847;80;30243;-69
2022/08/09 11:16:34;;;;;;;5.67;2.22;;;;;;;25.82;38.28;101261.08;2108812;80;27710;-68
2022/08/09 11:20:11;;;;;;;3.60;2.40;;;;;;;25.80;39.06;101258.51;2137577;80;30203;-69
2022/08/09 11:23:14;;;;;;;2.60;1.98;;;;;;;25.78;37.50;101256.42;2082031;83;31729;-65
2022/08/09 11:26:38;;;;;;;5.33;2.00;;;;;;;25.63;37.51;101261.53;2074453;85;34258;-65
2022/08/09 11:29:55;;;;;;;2.67;1.92;;;;;;;25.52;37.84;101256.25;2106223;83;29626;-66
2022/08/09 11:33:20;;;;;;;6.03;2.22;;;;;;;25.47;37.81;101249.85;2112152;81;27883;-67
2022/08/09 11:36:23;;;;;;;3.05;1.77;;;;;;;25.49;37.87;101251.91;2128599;82;28704;-67
2022/08/09 11:39:24;;;;;;;2.70;1.98;;;;;;;25.48;36.71;101250.21;2127540;83;31283;-67
2022/08/09 11:42:42;;;;;;;5.47;1.67;;;;;;;25.50;35.48;101261.02;2107986;82;33346;-67
2022/08/09 11:45:55;;;;;;;3.75;2.00;;;;;;;25.41;34.90;101260.02;2126524;82;28541;-66
2022/08/09 11:48:57;;;;;;;3.08;1.80;;;;;;;25.33;35.66;101249.27;2123454;83;28910;-66
2022/08/09 11:52:02;;;;;;;2.90;1.85;;;;;;;25.37;35.97;101248.98;2070770;85;28569;-66
2022/08/09 11:55:36;;;;;;;3.90;1.50;;;;;;;25.35;36.82;101245.02;2084706;84;31079;-65
2022/08/09 11:58:54;;;;;;;3.33;1.77;;;;;;;25.41;37.20;101240.28;2079188;82;33816;-71
2022/08/09 12:01:55;;;;;;;4.67;2.22;;;;;;;25.40;36.13;101245.94;2141374;81;29983;-66
2022/08/09 12:04:57;;;;;;;3.20;1.87;;;;;;;25.37;34.91;101247.11;2111845;82;27655;-66
2022/08/09 12:07:59;;;;;;;5.17;2.42;;;;;;;25.37;36.45;101244.37;2120808;82;29120;-66
2022/08/09 12:11:01;;;;;;;3.98;1.67;;;;;;;25.39;36.41;101236.86;2109884;82;31723;-66
2022/08/09 12:14:06;;;;;;;2.35;1.87;;;;;;;25.40;36.72;101230.85;2106661;82;34064;-67
2022/08/09 12:17:13;;;;;;;4.33;2.10;;;;;;;25.46;36.70;101237.15;2102885;82;29151;-66
2022/08/09 12:20:19;;;;;;;5.58;1.87;;;;;;;25.48;36.42;101233.75;2109434;82;27708;-67
2022/08/09 12:23:20;;;;;;;2.27;1.85;;;;;;;25.48;36.00;101232.38;2116552;82;30108;-66
2022/08/09 12:26:23;;;;;;;3.83;1.90;;;;;;;25.44;36.22;101231.80;2116837;82;31435;-69
2022/08/09 12:29:27;;;;;;;4.37;2.47;;;;;;;25.50;36.67;101230.84;2115361;83;33167;-66
2022/08/09 12:32:28;;;;;;;;;;;;;;;25.56;36.42;101222.86;2126960;82;28934;-66
2022/08/09 12:35:30;;;;;;;3.17;1.87;;;;;;;25.63;36.64;101225.86;2141230;81;27790;-68
2022/08/09 12:38:33;;;;;;;3.85;1.77;;;;;;;25.70;36.29;101223.36;2150587;82;29306;-67
2022/08/09 12:41:34;;;;;;;4.12;2.50;;;;;;;25.77;36.79;101222.59;2182730;80;31832;-67
2022/08/09 12:44:41;;;;;;;4.40;1.90;;;;;;;25.85;36.44;101230.06;2155893;81;33000;-68
2022/08/09 12:47:42;;;;;;;3.08;2.10;;;;;;;25.91;36.61;101221.22;2118890;82;29082;-70
2022/08/09 12:50:44;;;;;;;6.65;2.17;;;;;;;25.99;36.36;101216.33;2137603;81;28367;-68
2022/08/09 12:53:46;;;;;;;3.95;1.90;;;;;;;26.03;36.23;101212.75;2144686;82;29938;-68
2022/08/09 12:56:49;;;;;;;7.80;2.42;;;;;;;26.11;36.28;101208.77;2104157;82;31467;-68
2022/08/09 12:59:51;;;;;;;5.15;2.40;;;;;;;26.16;36.39;101209.14;2194871;80;33855;-68
2022/08/09 13:02:58;;;;;;;2.10;1.87;;;;;;;26.16;35.30;101203.64;2159681;80;29305;-68
2022/08/09 13:05:59;;;;;;;3.52;2.30;;;;;;;26.24;35.74;101205.11;2156007;82;27725;-68
2022/08/09 13:09:06;;;;;;;4.37;2.62;;;;;;;26.30;35.24;101200.87;2139908;82;29098;-68
2022/08/09 13:12:07;;;;;;;4.08;1.92;;;;;;;26.35;35.19;101201.27;2156680;81;31377;-67
2022/08/09 13:15:10;;;;;;;4.37;1.98;;;;;;;26.39;33.47;101205.41;2185521;80;33372;-71
2022/08/09 13:18:12;;;;;;;2.30;2.10;;;;;;;26.38;34.16;101196.84;2177438;80;29560;-69
2022/08/09 13:21:22;;;;;;;4.58;2.30;;;;;;;26.47;34.61;101195.52;2195741;80;27977;-69
2022/08/09 13:24:31;;;;;;;3.17;2.00;;;;;;;26.62;34.32;101194.45;2145369;81;29079;-71
2022/08/09 13:27:36;;;;;;;4.50;2.55;;;;;;;26.74;34.32;101190.91;2095119;82;31279;-69
2022/08/09 13:30:37;;;;;;;3.83;2.20;;;;;;;26.86;35.00;101189.67;2112524;82;32991;-67
2022/08/09 13:33:39;;;;;;;2.77;2.27;;;;;;;26.93;35.25;101191.25;2125326;80;28785;-68
2022/08/09 13:36:40;;;;;;;3.65;2.65;;;;;;;26.94;35.41;101191.61;2187410;80;27873;-69
2022/08/09 13:39:43;;;;;;;2.98;2.00;;;;;;;26.98;35.37;101192.48;2179346;79;28688;-71
2022/08/09 13:42:45;;;;;;;4.55;2.20;;;;;;;27.00;35.13;101196.44;2169577;80;31085;-70
2022/08/09 13:45:47;;;;;;;5.60;2.20;;;;;;;27.01;35.34;101194.56;2083999;82;33009;-74
2022/08/09 13:48:48;;;;;;;3.02;1.90;;;;;;;27.05;35.23;101197.34;2106212;82;29925;-76
2022/08/09 13:51:49;;;;;;;4.62;2.30;;;;;;;27.05;34.91;101198.73;2135533;80;27703;-70
2022/08/09 13:54:51;;;;;;;5.72;2.22;;;;;;;27.00;35.17;101208.81;2180199;80;28662;-68
2022/08/09 13:57:52;;;;;;;5.65;2.30;;;;;;;26.96;35.27;101204.16;2186638;80;31785;-70
2022/08/09 14:00:54;;;;;;;5.47;2.02;;;;;;;26.90;35.66;101206.17;2179261;80;34091;-68
2022/08/09 14:03:55;;;;;;;6.65;2.25;;;;;;;26.87;36.01;101207.89;2152959;81;29104;-77
2022/08/09 14:07:00;;;;;;;3.85;2.37;;;;;;;26.77;36.18;101198.34;2154761;81;27908;-71
2022/08/09 14:10:06;;;;;;;6.72;2.20;;;;;;;26.71;36.51;101198.12;2154769;82;28683;-71
2022/08/09 14:13:07;;;;;;;2.45;1.82;;;;;;;26.64;36.76;101197.38;2159071;80;31794;-70
2022/08/09 14:16:12;;;;;;;4.20;1.90;;;;;;;26.51;36.47;101203.80;2184863;80;32988;-73
2022/08/09 14:19:14;;;;;;;2.62;1.82;;;;;;;26.29;36.28;101214.78;2171692;79;28741;-75
2022/08/09 14:22:15;;;;;;;4.90;2.22;;;;;;;26.14;36.51;101215.33;2175145;79;27931;-74
2022/08/09 14:25:16;;;;;;;2.45;1.80;;;;;;;26.08;36.58;101210.41;2161023;79;29583;-71
2022/08/09 14:28:18;;;;;;;3.35;1.98;;;;;;;26.04;36.78;101207.13;2143941;82;31180;-68
2022/08/09 14:31:19;;;;;;;2.10;2.00;;;;;;;26.03;36.91;101208.14;2177457;80;33339;-69
2022/08/09 14:34:22;;;;;;;5.50;1.72;;;;;;;26.03;36.98;101209.52;2093738;82;29601;-68
2022/08/09 14:37:24;;;;;;;8.55;2.20;;;;;;;26.02;37.05;101210.53;2113527;82;27649;-68
2022/08/09 14:40:26;;;;;;;3.50;1.98;;;;;;;25.98;36.93;101204.14;2107005;82;28671;-66
2022/08/09 14:43:27;;;;;;;4.92;2.12;;;;;;;25.90;37.01;101207.14;2122766;81;31058;-66
2022/08/09 14:46:29;;;;;;;4.35;1.98;;;;;;;25.88;37.21;101201.46;2136462;81;33402;-66
2022/08/09 14:49:30;;;;;;;8.78;2.67;;;;;;;25.82;36.60;101207.55;2150710;80;28852;-67
2022/08/09 14:52:34;;;;;;;3.95;1.90;;;;;;;25.71;36.74;101212.25;2133161;80;27826;-66
2022/08/09 14:55:35;;;;;;;2.50;2.10;;;;;;;25.67;36.79;101208.08;2123485;82;28239;-66
2022/08/09 14:58:37;;;;;;;3.15;2.00;;;;;;;25.61;36.86;101204.08;2133983;81;31473;-66
2022/08/09 15:01:38;;;;;;;5.65;2.10;;;;;;;25.56;36.64;101206.92;2104999;83;32749;-74
2022/08/09 15:04:40;;;;;;;5.08;2.10;;;;;;;25.52;37.10;101211.83;2100897;82;29745;-64
2022/08/09 15:07:41;;;;;;;4.28;2.00;;;;;;;25.52;37.11;101200.85;2089930;82;27804;-66
2022/08/09 15:10:43;;;;;;;6.65;2.08;;;;;;;25.47;37.28;101202.69;2124141;80;28680;-65
2022/08/09 15:13:44;;;;;;;3.42;2.02;;;;;;;25.45;37.66;101197.86;2123409;80;31631;-65
2022/08/09 15:16:46;;;;;;;7.70;2.10;;;;;;;25.44;37.65;101200.77;2135749;80;34224;-65
2022/08/09 15:19:49;;;;;;;5.25;2.52;;;;;;;25.37;37.65;101200.48;2141686;82;29139;-66
2022/08/09 15:22:55;;;;;;;5.25;2.10;;;;;;;25.37;37.75;101196.86;2141051;82;27730;-69
2022/08/09 15:25:54;;;;;;;2.98;1.80;;;;;;;25.36;37.88;101202.86;2138779;81;29063;-66
2022/08/09 15:28:55;;;;;;;3.75;2.20;;;;;;;25.34;37.64;101194.77;2111023;83;31470;-67
2022/08/09 15:31:56;;;;;;;7.87;2.27;;;;;;;25.36;37.75;101194.64;2120957;83;33681;-67
2022/08/09 15:34:59;;;;;;;4.25;2.30;;;;;;;25.36;38.09;101191.02;2152062;80;29092;-64
2022/08/09 15:38:00;;;;;;;4.28;2.20;;;;;;;25.32;38.16;101191.31;2142207;80;27842;-65
2022/08/09 15:41:02;;;;;;;5.55;2.33;;;;;;;25.31;37.83;101190.10;2151983;82;29150;-67